Fletcher, NC

8:12 AM EST on December 29, 2014 (GMT -0500)
SouthChase | Change Station
CLOSE
Current Station
Personal Weather Station
Location: Fletcher, NC
Elevation: 2126 ft
Nearby Weather Stations

Elev 2126 ft 35.43 °N, 82.50 °W | Updated 2 minutes ago

Overcast
Overcast
48.2 °F
Feels Like 48 °F
N
0.0
Wind Variable Wind from NNW

Today
High -- | Low -- °F
--% Chance of Precip.
Yesterday
High -- | Low -- °F
Precip. -- in
7:38 AM 5:25 PM
First Quarter, 59% visible
Pressure 30.04 in
Visibility 2.0 miles
Clouds Few 3300 ft
Mostly Cloudy 7500 ft
Overcast 9500 ft
Windchill 48 °F
Dew Point 48 °F
Humidity 99%
Rainfall 0.35 in
Snow Depth Not available.
UV 0 out of 12
Pollen .30 out of 12
Air Quality Not available.
Flu Activity Not available.
METAR KAVL 291254Z 00000KT 2SM BR FEW033 BKN075 OVC095 09/08 A3006 RMK AO2 RAE1155 SLP171 P0000 T00940083

More Conditions Fewer Conditions

Pressure 30.04 in
Visibility 2.0 miles
Clouds Few 3300 ft
Mostly Cloudy 7500 ft
Overcast 9500 ft
Windchill 48 °F
Dew Point 48 °F
Humidity 99%
Rainfall 0.35 in
Snow Depth Not available.
UV 0 out of 12
Pollen .30 out of 12
Air Quality Not available.
Flu Activity Not available.
METAR KAVL 291254Z 00000KT 2SM BR FEW033 BKN075 OVC095 09/08 A3006 RMK AO2 RAE1155 SLP171 P0000 T00940083

More Conditions Fewer Conditions

10-Day Weather Forecast

Almanac

Astronomy

Dec. 29, 2014 Rise Set
Actual Time
Civil Twilight
Nautical Twilight
Astronomical Twilight
Moon
Length of Visible Light
Length of Day
Tomorrow will be .
, % of the Moon is Illuminated

Today's Extremes

State Highs State Lows

Community

WunderPhotos

Upload Photos

1,781,577 photos uploaded!

WunderBlogs® & News

Nearby

Air Quality

  Air Quality AQ Index Pollutant
Not available.

Snow Depth

Station Depth Elevation

Earthquake Activity

City Distance Mag. Time & Date
Minimum magnitude displayed is 2.5.

Coastal Water Temperatures

Place Temperature

Nearby Weather Stations